createdAt,value
2022-10-24T00:01:09.524Z,66.53
2022-10-24T00:03:36.208Z,66.44
2022-10-24T00:06:05.881Z,66.75
2022-10-24T00:08:32.649Z,66.58
2022-10-24T00:10:59.190Z,66.77
2022-10-24T00:13:25.961Z,66.68
2022-10-24T00:15:52.516Z,66.58
2022-10-24T00:18:19.113Z,66.41
2022-10-24T00:20:45.703Z,66.46
2022-10-24T00:23:13.653Z,66.22
2022-10-24T00:25:40.432Z,66.35
2022-10-24T00:28:06.972Z,66.23
2022-10-24T00:30:33.580Z,66.39
2022-10-24T00:33:00.287Z,65.98
2022-10-24T00:35:27.124Z,66.17
2022-10-24T00:37:53.759Z,66.57
2022-10-24T00:40:21.088Z,66.12
2022-10-24T00:42:48.745Z,66.54
2022-10-24T00:45:53.132Z,65.76
2022-10-24T00:48:33.618Z,66.14
2022-10-24T00:51:21.513Z,66.20
2022-10-24T00:53:50.818Z,66.01
2022-10-24T00:56:21.324Z,66.18
2022-10-24T00:58:49.983Z,65.95
2022-10-24T01:01:16.773Z,65.79
2022-10-24T01:03:43.427Z,65.70
2022-10-24T01:06:31.693Z,65.85
2022-10-24T01:09:14.861Z,65.45
2022-10-24T01:12:28.353Z,65.39
2022-10-24T01:15:18.854Z,65.51
2022-10-24T01:17:56.364Z,65.26
2022-10-24T01:20:25.540Z,65.42
2022-10-24T01:23:07.127Z,65.68
2022-10-24T01:25:56.196Z,65.64
2022-10-24T01:28:32.727Z,65.28
2022-10-24T01:31:10.055Z,65.66
2022-10-24T01:33:42.546Z,65.14
2022-10-24T01:36:20.775Z,65.39
2022-10-24T01:39:12.864Z,65.04
2022-10-24T01:41:41.735Z,64.42
2022-10-24T01:44:24.696Z,64.32
2022-10-24T01:46:56.525Z,64.41
2022-10-24T01:49:28.451Z,64.48
2022-10-24T01:51:59.996Z,64.56
2022-10-24T01:54:27.864Z,64.33
2022-10-24T01:56:54.390Z,64.64
2022-10-24T01:59:29.828Z,64.29
2022-10-24T02:02:11.941Z,64.11
2022-10-24T02:04:45.954Z,64.34
2022-10-24T02:07:14.123Z,64.08
2022-10-24T02:09:43.419Z,64.29
2022-10-24T02:12:13.593Z,64.52
2022-10-24T02:14:46.481Z,64.02
2022-10-24T02:17:13.171Z,64.13
2022-10-24T02:19:39.827Z,64.01
2022-10-24T02:22:28.201Z,63.70
2022-10-24T02:25:07.013Z,63.95
2022-10-24T02:27:42.659Z,63.54
2022-10-24T02:30:15.809Z,63.84
2022-10-24T02:32:45.653Z,63.54
2022-10-24T02:35:15.684Z,63.23
2022-10-24T02:37:50.258Z,63.39
2022-10-24T02:40:19.941Z,63.41
2022-10-24T02:42:47.940Z,63.53
2022-10-24T02:45:16.332Z,63.60
2022-10-24T02:47:45.007Z,63.53
2022-10-24T02:50:13.497Z,62.57
2022-10-24T02:52:41.678Z,62.79
2022-10-24T02:55:08.935Z,62.60
2022-10-24T02:57:35.558Z,62.84
2022-10-24T03:00:02.131Z,62.68
2022-10-24T03:02:28.715Z,61.99
2022-10-24T03:04:55.254Z,62.41
2022-10-24T03:07:21.991Z,62.19
2022-10-24T03:09:48.577Z,62.32
2022-10-24T03:12:16.808Z,61.89
2022-10-24T03:14:45.219Z,61.73
2022-10-24T03:17:11.875Z,61.31
2022-10-24T03:19:38.528Z,61.28
2022-10-24T03:22:05.295Z,61.32
2022-10-24T03:24:43.727Z,61.02
2022-10-24T03:27:18.488Z,60.78
2022-10-24T03:29:45.046Z,60.65
2022-10-24T03:32:11.675Z,60.76
2022-10-24T03:34:38.431Z,60.93
2022-10-24T03:37:05.174Z,60.28
2022-10-24T03:39:31.824Z,60.37
2022-10-24T03:41:58.295Z,60.41
2022-10-24T03:44:25.040Z,59.91
2022-10-24T03:46:51.653Z,59.65
2022-10-24T03:49:18.184Z,59.72
2022-10-24T03:51:44.922Z,59.65
2022-10-24T03:54:13.101Z,59.84
2022-10-24T03:56:39.779Z,59.26
2022-10-24T03:59:06.364Z,59.14
2022-10-24T04:01:33.138Z,59.20
2022-10-24T04:03:59.793Z,59.63
2022-10-24T04:06:26.446Z,59.60
2022-10-24T04:08:53.016Z,59.69
2022-10-24T04:11:19.842Z,59.73
2022-10-24T04:13:46.446Z,59.10
2022-10-24T04:16:13.045Z,59.23
2022-10-24T04:18:39.645Z,59.26
2022-10-24T04:21:06.537Z,58.94
2022-10-24T04:23:35.753Z,59.55
2022-10-24T04:26:02.318Z,59.66
2022-10-24T04:28:30.067Z,59.72
2022-10-24T04:30:57.322Z,59.80
2022-10-24T04:33:24.461Z,59.27
2022-10-24T04:35:52.361Z,59.17
2022-10-24T04:38:19.391Z,59.22
2022-10-24T04:40:48.673Z,59.42
2022-10-24T04:43:15.747Z,59.52
2022-10-24T04:45:42.328Z,59.61
2022-10-24T04:48:09.031Z,60.03
2022-10-24T04:50:35.788Z,59.75
2022-10-24T04:53:03.145Z,59.88
2022-10-24T04:55:30.177Z,59.39
2022-10-24T04:57:56.792Z,59.42
2022-10-24T05:00:23.671Z,59.71
2022-10-24T05:02:52.975Z,60.02
2022-10-24T05:05:22.141Z,59.86
2022-10-24T05:07:49.094Z,59.85
2022-10-24T05:10:16.751Z,59.55
2022-10-24T05:12:44.589Z,59.97
2022-10-24T05:15:11.874Z,60.20
2022-10-24T05:17:38.406Z,60.41
2022-10-24T05:20:05.579Z,60.47
2022-10-24T05:22:32.141Z,60.77
2022-10-24T05:24:58.783Z,61.01
2022-10-24T05:27:25.346Z,61.22
2022-10-24T05:29:53.348Z,60.85
2022-10-24T05:32:22.234Z,60.71
2022-10-24T05:34:48.994Z,60.76
2022-10-24T05:37:15.728Z,60.74
2022-10-24T05:39:42.270Z,60.93
2022-10-24T05:42:09.560Z,60.62
2022-10-24T05:44:36.153Z,60.99
2022-10-24T05:47:02.822Z,60.76
2022-10-24T05:49:29.611Z,60.56
2022-10-24T05:51:56.302Z,60.52
2022-10-24T05:54:22.933Z,60.23
2022-10-24T05:56:49.591Z,60.25
2022-10-24T05:59:16.182Z,60.96
2022-10-24T06:01:43.090Z,60.55
2022-10-24T06:04:12.886Z,60.64
2022-10-24T06:06:42.352Z,60.43
2022-10-24T06:09:09.449Z,60.84
2022-10-24T06:11:36.246Z,61.20
2022-10-24T06:14:03.924Z,61.39
2022-10-24T06:16:30.865Z,61.70
2022-10-24T06:18:57.879Z,61.76
2022-10-24T06:21:25.069Z,61.95
2022-10-24T06:23:51.946Z,61.67
2022-10-24T06:26:21.692Z,61.35
2022-10-24T06:28:50.624Z,61.50
2022-10-24T06:31:18.562Z,61.92
2022-10-24T06:33:45.121Z,61.90
2022-10-24T06:36:12.106Z,61.29
2022-10-24T06:38:38.717Z,61.51
2022-10-24T06:41:07.552Z,61.77
2022-10-24T06:43:34.121Z,61.67
2022-10-24T06:46:05.476Z,61.68
2022-10-24T06:48:32.175Z,61.09
2022-10-24T06:50:58.741Z,61.41
2022-10-24T06:53:25.301Z,61.25
2022-10-24T06:55:51.916Z,61.70
2022-10-24T06:58:18.474Z,61.34
2022-10-24T07:00:45.499Z,61.30
2022-10-24T07:03:15.946Z,61.33
2022-10-24T07:05:42.942Z,61.45
2022-10-24T07:08:10.968Z,61.01
2022-10-24T07:10:37.706Z,61.15
2022-10-24T07:13:04.237Z,61.06
2022-10-24T07:15:30.826Z,61.33
2022-10-24T07:17:57.361Z,61.63
2022-10-24T07:20:23.964Z,61.82
2022-10-24T07:22:50.609Z,62.04
2022-10-24T07:25:18.328Z,63.07
2022-10-24T07:27:44.883Z,62.98
2022-10-24T07:30:17.370Z,63.14
2022-10-24T07:32:44.268Z,63.30
2022-10-24T07:35:12.892Z,63.38
2022-10-24T07:37:39.798Z,63.57
2022-10-24T07:40:07.104Z,63.55
2022-10-24T07:42:33.831Z,63.34
2022-10-24T07:45:00.601Z,63.30
2022-10-24T07:47:27.252Z,63.34
2022-10-24T07:49:54.272Z,62.71
2022-10-24T07:52:20.915Z,63.05
2022-10-24T07:54:47.436Z,63.17
2022-10-24T07:57:14.137Z,62.52
2022-10-24T07:59:42.713Z,62.93
2022-10-24T08:02:13.908Z,62.37
2022-10-24T08:04:41.302Z,61.84
2022-10-24T08:07:13.275Z,62.17
2022-10-24T08:09:42.638Z,61.59
2022-10-24T08:12:09.548Z,61.58
2022-10-24T08:14:41.333Z,61.46
2022-10-24T08:17:08.115Z,61.42
2022-10-24T08:19:35.185Z,61.49
2022-10-24T08:22:02.416Z,60.96
2022-10-24T08:24:29.231Z,60.78
2022-10-24T08:26:56.805Z,60.98
2022-10-24T08:29:23.768Z,60.88
2022-10-24T08:31:53.222Z,61.07
2022-10-24T08:34:20.497Z,60.95
2022-10-24T08:36:48.563Z,61.08
2022-10-24T08:39:16.377Z,60.63
2022-10-24T08:41:47.016Z,60.46
2022-10-24T08:44:26.898Z,60.21
2022-10-24T08:47:26.142Z,60.38
2022-10-24T08:49:57.562Z,61.34
2022-10-24T08:52:31.168Z,60.64
2022-10-24T08:55:04.737Z,60.93
2022-10-24T09:00:27.738Z,60.31
2022-10-24T09:03:43.874Z,59.77
2022-10-24T09:06:30.398Z,60.02
2022-10-24T09:09:15.450Z,59.31
2022-10-24T09:11:57.042Z,58.46
2022-10-24T09:14:27.825Z,58.59
2022-10-24T09:19:55.608Z,58.61
2022-10-24T09:22:25.461Z,58.13
2022-10-24T09:25:01.320Z,58.46
2022-10-24T09:27:30.920Z,58.47
2022-10-24T09:29:58.775Z,58.53
2022-10-24T09:32:30.681Z,59.41
2022-10-24T09:35:09.087Z,59.87
2022-10-24T09:37:49.417Z,59.80
2022-10-24T09:40:21.310Z,60.52
2022-10-24T09:43:17.452Z,60.13
2022-10-24T09:45:48.448Z,59.58
2022-10-24T09:48:17.696Z,58.84
2022-10-24T09:50:46.888Z,58.50
2022-10-24T09:53:24.969Z,58.72
2022-10-24T09:55:56.447Z,59.45
2022-10-24T09:58:32.601Z,58.00
2022-10-24T10:01:22.657Z,57.27
2022-10-24T10:04:09.045Z,57.71
2022-10-24T10:06:45.257Z,56.31
2022-10-24T10:09:15.010Z,54.46
2022-10-24T10:11:49.518Z,53.02
2022-10-24T10:14:29.321Z,53.92
2022-10-24T10:17:02.486Z,54.77
2022-10-24T10:19:36.480Z,55.34
2022-10-24T10:22:22.887Z,56.81
2022-10-24T10:24:49.672Z,58.11
2022-10-24T10:27:40.571Z,58.82
2022-10-24T10:30:16.388Z,58.58
2022-10-24T10:33:06.689Z,58.85
2022-10-24T10:35:44.567Z,57.49
2022-10-24T10:38:51.328Z,56.42
2022-10-24T10:41:33.193Z,56.34
2022-10-24T10:43:59.701Z,56.95
2022-10-24T10:46:48.693Z,57.06
2022-10-24T10:49:24.887Z,56.35
2022-10-24T10:52:03.015Z,53.94
2022-10-24T10:55:05.559Z,53.64
2022-10-24T10:57:54.109Z,53.98
2022-10-24T11:00:38.445Z,53.94
2022-10-24T11:03:20.952Z,50.92
2022-10-24T11:06:09.065Z,48.66
2022-10-24T11:08:53.946Z,50.17
2022-10-24T11:11:30.234Z,50.10
2022-10-24T11:14:09.180Z,50.99
2022-10-24T11:16:36.226Z,50.48
2022-10-24T11:19:26.683Z,49.84
2022-10-24T11:21:57.098Z,49.23
2022-10-24T11:24:25.167Z,48.36
2022-10-24T11:27:03.332Z,43.75
2022-10-24T11:29:34.107Z,41.00
2022-10-24T11:32:24.186Z,36.30
2022-10-24T11:35:29.036Z,30.88
2022-10-24T11:38:17.415Z,31.73
2022-10-24T11:40:48.471Z,32.04
2022-10-24T11:43:24.572Z,30.99
2022-10-24T11:46:12.788Z,30.07
2022-10-24T11:48:53.190Z,29.08
2022-10-24T11:51:25.406Z,28.77
2022-10-24T11:53:59.558Z,29.99
2022-10-24T11:56:43.214Z,29.99
2022-10-24T11:59:18.734Z,29.95
2022-10-24T12:02:03.302Z,29.89
2022-10-24T12:04:42.136Z,30.59
2022-10-24T12:07:47.791Z,31.42
2022-10-24T12:10:29.042Z,32.32
2022-10-24T12:13:23.669Z,30.78
2022-10-24T12:16:14.464Z,28.75
2022-10-24T12:18:48.808Z,29.66
2022-10-24T12:21:25.961Z,30.20
2022-10-24T12:23:59.106Z,28.87
2022-10-24T12:26:37.473Z,29.49
2022-10-24T12:29:06.888Z,29.99
2022-10-24T12:31:38.231Z,31.02
2022-10-24T12:34:20.655Z,33.44
2022-10-24T12:37:08.613Z,37.16
2022-10-24T12:39:37.039Z,38.81
2022-10-24T12:42:04.653Z,40.10
2022-10-24T12:44:34.379Z,40.84
2022-10-24T12:47:22.780Z,40.56
2022-10-24T12:49:52.017Z,42.01
2022-10-24T12:52:31.135Z,42.99
2022-10-24T12:54:59.302Z,45.33
2022-10-24T12:57:36.538Z,45.39
2022-10-24T13:00:21.719Z,45.82
2022-10-24T13:03:00.863Z,46.60
2022-10-24T13:05:52.841Z,46.95
2022-10-24T13:08:43.628Z,46.79
2022-10-24T13:11:36.962Z,47.42
2022-10-24T13:14:06.429Z,47.42
2022-10-24T13:16:45.263Z,47.77
2022-10-24T13:19:18.468Z,48.37
2022-10-24T13:21:48.143Z,48.17
2022-10-24T13:24:19.819Z,49.52
2022-10-24T13:26:56.717Z,49.51
2022-10-24T13:29:23.354Z,49.66
2022-10-24T13:31:55.606Z,50.24
2022-10-24T13:34:44.723Z,49.83
2022-10-24T13:37:27.019Z,49.59
2022-10-24T13:40:02.745Z,50.01
2022-10-24T13:42:43.225Z,50.45
2022-10-24T13:45:30.706Z,49.49
2022-10-24T13:48:13.093Z,50.18
2022-10-24T13:50:51.761Z,50.45
2022-10-24T13:53:31.092Z,50.55
2022-10-24T13:56:03.364Z,49.81
2022-10-24T13:58:41.027Z,50.24
2022-10-24T14:01:25.805Z,50.29
2022-10-24T14:03:54.486Z,49.74
2022-10-24T14:06:26.749Z,50.13
2022-10-24T14:09:04.202Z,50.77
2022-10-24T14:11:35.266Z,50.62
2022-10-24T14:14:06.081Z,50.44
2022-10-24T14:16:35.494Z,49.42
2022-10-24T14:19:23.570Z,49.62
2022-10-24T14:21:54.910Z,49.35
2022-10-24T14:24:23.571Z,49.14
2022-10-24T14:26:53.505Z,49.10
2022-10-24T14:29:33.997Z,48.37
2022-10-24T14:32:05.237Z,49.03
2022-10-24T14:34:36.288Z,49.43
2022-10-24T14:37:06.566Z,48.89
2022-10-24T14:39:33.999Z,48.84
2022-10-24T14:42:01.749Z,49.47
2022-10-24T14:44:29.060Z,49.48
2022-10-24T14:47:21.729Z,49.24
2022-10-24T14:49:48.541Z,49.89
2022-10-24T14:52:15.335Z,50.45
2022-10-24T14:54:51.049Z,49.85
2022-10-24T14:57:21.964Z,49.68
2022-10-24T14:59:52.486Z,50.06
2022-10-24T15:02:19.663Z,50.06
2022-10-24T15:04:47.888Z,50.09
2022-10-24T15:07:14.893Z,49.57
2022-10-24T15:09:59.449Z,50.21
2022-10-24T15:12:48.306Z,50.27
2022-10-24T15:15:22.485Z,50.17
2022-10-24T15:17:51.704Z,50.17
2022-10-24T15:20:22.384Z,49.82
2022-10-24T15:22:56.348Z,49.74
2022-10-24T15:25:26.687Z,50.63
2022-10-24T15:27:59.269Z,50.88
2022-10-24T15:30:29.256Z,51.63
2022-10-24T15:32:57.984Z,51.81
2022-10-24T15:35:25.255Z,52.23
2022-10-24T15:38:10.477Z,52.70
2022-10-24T15:40:45.146Z,53.11
2022-10-24T15:43:13.607Z,53.54
2022-10-24T15:45:40.577Z,53.83
2022-10-24T15:48:07.472Z,53.75
2022-10-24T15:50:34.700Z,53.92
2022-10-24T15:53:04.273Z,54.07
2022-10-24T15:55:32.354Z,53.92
2022-10-24T15:58:03.029Z,53.46
2022-10-24T16:00:29.808Z,53.49
2022-10-24T16:03:00.721Z,53.59
2022-10-24T16:05:38.159Z,53.97
2022-10-24T16:08:05.647Z,53.56
2022-10-24T16:10:32.588Z,53.85
2022-10-24T16:12:59.183Z,54.43
2022-10-24T16:15:34.358Z,55.08
2022-10-24T16:18:01.092Z,55.30
2022-10-24T16:20:27.790Z,55.42
2022-10-24T16:22:54.886Z,55.59
2022-10-24T16:25:29.391Z,55.40
2022-10-24T16:27:56.828Z,56.46
2022-10-24T16:30:26.497Z,56.09
2022-10-24T16:32:52.985Z,56.45
2022-10-24T16:35:28.701Z,57.55
2022-10-24T16:37:57.552Z,57.31
2022-10-24T16:40:26.850Z,57.02
2022-10-24T16:42:56.122Z,57.50
2022-10-24T16:45:23.426Z,57.52
2022-10-24T16:47:50.983Z,57.70
2022-10-24T16:50:23.981Z,57.79
2022-10-24T16:52:55.412Z,57.19
2022-10-24T16:55:22.954Z,57.33
2022-10-24T16:57:49.845Z,57.75
2022-10-24T17:00:18.382Z,58.04
2022-10-24T17:02:46.219Z,57.93
2022-10-24T17:05:13.600Z,57.92
2022-10-24T17:07:42.059Z,58.32
2022-10-24T17:10:11.608Z,58.10
2022-10-24T17:12:39.453Z,58.62
2022-10-24T17:15:06.996Z,58.31
2022-10-24T17:17:33.891Z,58.75
2022-10-24T17:20:01.663Z,58.22
2022-10-24T17:22:29.273Z,58.88
2022-10-24T17:24:56.472Z,58.13
2022-10-24T17:27:23.379Z,58.11
2022-10-24T17:29:50.578Z,58.21
2022-10-24T17:32:18.298Z,57.78
2022-10-24T17:34:50.101Z,58.09
2022-10-24T17:37:20.201Z,58.24
2022-10-24T17:40:05.936Z,58.24
2022-10-24T17:42:33.434Z,58.19
2022-10-24T17:45:00.481Z,58.96
2022-10-24T17:47:27.216Z,58.91
2022-10-24T17:49:53.984Z,58.77
2022-10-24T17:52:24.563Z,59.42
2022-10-24T17:54:54.796Z,59.98
2022-10-24T17:57:21.403Z,60.17
2022-10-24T17:59:48.197Z,60.58
2022-10-24T18:02:17.360Z,60.96
2022-10-24T18:04:44.960Z,61.07
2022-10-24T18:07:11.793Z,61.36
2022-10-24T18:09:40.065Z,61.26
2022-10-24T18:12:07.415Z,61.41
2022-10-24T18:14:37.462Z,61.64
2022-10-24T18:17:04.418Z,61.60
2022-10-24T18:19:31.362Z,61.75
2022-10-24T18:21:58.025Z,61.85
2022-10-24T18:24:25.468Z,62.07
2022-10-24T18:26:52.532Z,61.90
2022-10-24T18:29:19.229Z,62.08
2022-10-24T18:31:46.117Z,61.94
2022-10-24T18:34:13.142Z,61.81
2022-10-24T18:36:39.970Z,61.96
2022-10-24T18:39:07.005Z,62.04
2022-10-24T18:41:56.184Z,62.09
2022-10-24T18:44:28.774Z,62.24
2022-10-24T18:47:01.337Z,61.86
2022-10-24T18:49:33.543Z,61.73
2022-10-24T18:52:26.789Z,61.96
2022-10-24T18:55:04.060Z,61.85
2022-10-24T18:57:33.120Z,61.24
2022-10-24T19:00:00.750Z,61.80
2022-10-24T19:02:43.236Z,62.20
2022-10-24T19:05:39.075Z,62.31
2022-10-24T19:08:12.776Z,62.48
2022-10-24T19:10:40.190Z,63.17
2022-10-24T19:13:07.945Z,63.25
2022-10-24T19:15:38.210Z,63.12
2022-10-24T19:18:05.554Z,63.31
2022-10-24T19:20:35.124Z,63.17
2022-10-24T19:23:05.116Z,63.17
2022-10-24T19:25:33.440Z,63.07
2022-10-24T19:28:00.261Z,62.86
2022-10-24T19:30:27.018Z,62.82
2022-10-24T19:32:55.294Z,62.39
2022-10-24T19:35:22.201Z,62.41
2022-10-24T19:37:49.389Z,61.98
2022-10-24T19:40:16.910Z,61.31
2022-10-24T19:42:43.584Z,62.02
2022-10-24T19:45:10.326Z,61.45
2022-10-24T19:47:36.901Z,61.36
2022-10-24T19:50:03.728Z,61.81
2022-10-24T19:52:30.494Z,61.35
2022-10-24T19:54:57.380Z,61.62
2022-10-24T19:57:24.099Z,60.76
2022-10-24T19:59:50.719Z,60.97
2022-10-24T20:02:17.802Z,60.95
2022-10-24T20:04:48.903Z,60.99
2022-10-24T20:07:17.463Z,60.91
2022-10-24T20:09:44.435Z,60.94
2022-10-24T20:12:11.575Z,61.00
2022-10-24T20:14:38.178Z,60.88
2022-10-24T20:17:04.801Z,61.72
2022-10-24T20:19:31.469Z,60.96
2022-10-24T20:22:00.335Z,61.04
2022-10-24T20:24:30.526Z,61.21
2022-10-24T20:26:57.235Z,61.52
2022-10-24T20:29:23.877Z,61.59
2022-10-24T20:31:50.673Z,61.66
2022-10-24T20:34:17.517Z,61.87
2022-10-24T20:36:47.161Z,61.76
2022-10-24T20:39:16.139Z,62.36
2022-10-24T20:41:43.255Z,62.44
2022-10-24T20:44:11.150Z,62.69
2022-10-24T20:46:38.021Z,63.24
2022-10-24T20:49:05.120Z,63.18
2022-10-24T20:51:31.835Z,63.60
2022-10-24T20:53:58.796Z,63.49
2022-10-24T20:56:26.590Z,63.61
2022-10-24T20:58:55.356Z,63.50
2022-10-24T21:01:24.479Z,63.56
2022-10-24T21:03:53.171Z,63.58
2022-10-24T21:06:22.562Z,64.11
2022-10-24T21:08:51.016Z,64.18
2022-10-24T21:11:24.581Z,63.98
2022-10-24T21:13:55.992Z,63.81
2022-10-24T21:16:23.482Z,64.28
2022-10-24T21:18:50.307Z,64.43
2022-10-24T21:21:17.708Z,64.39
2022-10-24T21:23:44.397Z,64.48
2022-10-24T21:26:14.253Z,64.41
2022-10-24T21:28:41.094Z,64.34
2022-10-24T21:31:10.395Z,64.38
2022-10-24T21:33:38.113Z,64.09
2022-10-24T21:36:10.928Z,64.22
2022-10-24T21:38:37.927Z,64.40
2022-10-24T21:41:07.747Z,64.85
2022-10-24T21:43:37.132Z,64.97
2022-10-24T21:46:12.771Z,64.66
2022-10-24T21:48:40.833Z,64.85
2022-10-24T21:51:17.124Z,65.35
2022-10-24T21:53:50.484Z,64.91
2022-10-24T21:56:20.737Z,65.56
2022-10-24T21:58:49.051Z,65.63
2022-10-24T22:01:18.949Z,65.87
2022-10-24T22:03:46.446Z,65.86
2022-10-24T22:06:15.624Z,65.76
2022-10-24T22:08:43.317Z,66.03
2022-10-24T22:11:12.321Z,65.89
2022-10-24T22:13:39.362Z,66.18
2022-10-24T22:16:06.996Z,66.21
2022-10-24T22:18:34.325Z,66.36
2022-10-24T22:21:02.617Z,66.29
2022-10-24T22:23:29.532Z,66.45
2022-10-24T22:25:58.324Z,66.65
2022-10-24T22:28:25.504Z,65.72
2022-10-24T22:30:52.429Z,65.60
2022-10-24T22:33:42.166Z,65.46
2022-10-24T22:36:19.718Z,65.29
2022-10-24T22:38:47.034Z,65.38
2022-10-24T22:41:13.988Z,65.74
2022-10-24T22:43:40.930Z,66.23
2022-10-24T22:46:40.187Z,66.26
2022-10-24T22:49:18.048Z,66.48
2022-10-24T22:51:44.949Z,66.78
2022-10-24T22:54:19.707Z,66.70
2022-10-24T22:56:46.850Z,66.24
2022-10-24T22:59:16.403Z,66.35
2022-10-24T23:01:58.556Z,66.17
2022-10-24T23:04:46.506Z,65.96
2022-10-24T23:07:55.428Z,66.41
2022-10-24T23:10:25.189Z,66.43
2022-10-24T23:12:52.437Z,66.42
2022-10-24T23:15:20.958Z,66.21
2022-10-24T23:17:49.006Z,66.58
2022-10-24T23:20:34.620Z,66.04
2022-10-24T23:23:15.756Z,66.29
2022-10-24T23:25:52.145Z,65.92
2022-10-24T23:28:35.061Z,65.87
2022-10-24T23:33:30.187Z,66.28
2022-10-24T23:36:00.372Z,66.37
2022-10-24T23:38:27.880Z,65.84
2022-10-24T23:40:55.015Z,66.13
2022-10-24T23:43:23.058Z,65.55
2022-10-24T23:45:59.080Z,65.20
2022-10-24T23:48:25.814Z,65.93
2022-10-24T23:51:17.776Z,65.76
2022-10-24T23:53:54.841Z,65.77
2022-10-24T23:56:24.395Z,65.47
2022-10-24T23:58:51.676Z,65.31
